createdAt,value
2022-11-14T00:00:58.326Z,1.65
2022-11-14T00:03:46.443Z,1.10
2022-11-14T00:06:33.923Z,2.10
2022-11-14T00:09:21.276Z,1.00
2022-11-14T00:12:13.210Z,2.05
2022-11-14T00:15:00.522Z,2.50
2022-11-14T00:17:47.683Z,2.58
2022-11-14T00:20:34.943Z,2.92
2022-11-14T00:23:22.410Z,1.95
2022-11-14T00:26:09.645Z,1.88
2022-11-14T00:28:58.189Z,0.70
2022-11-14T00:31:45.162Z,1.05
2022-11-14T00:34:32.215Z,1.48
2022-11-14T00:37:19.492Z,2.22
2022-11-14T00:40:07.237Z,2.08
2022-11-14T00:42:54.207Z,2.25
2022-11-14T00:45:44.043Z,2.38
2022-11-14T00:48:32.024Z,2.33
2022-11-14T00:51:19.335Z,1.20
2022-11-14T00:54:06.591Z,2.17
2022-11-14T00:56:53.521Z,1.33
2022-11-14T00:59:40.691Z,1.52
2022-11-14T01:02:29.310Z,1.48
2022-11-14T01:05:16.398Z,1.13
2022-11-14T01:08:03.938Z,2.85
2022-11-14T01:10:51.660Z,2.67
2022-11-14T01:13:39.006Z,3.08
2022-11-14T01:16:26.592Z,1.65
2022-11-14T01:19:15.493Z,1.80
2022-11-14T01:22:06.264Z,2.35
2022-11-14T01:24:55.462Z,1.55
2022-11-14T01:27:42.341Z,1.83
2022-11-14T01:30:29.621Z,2.67
2022-11-14T01:33:17.440Z,2.95
2022-11-14T01:36:06.188Z,1.58
2022-11-14T01:38:56.294Z,1.70
2022-11-14T01:41:43.360Z,4.80
2022-11-14T01:44:41.163Z,3.78
2022-11-14T01:47:30.646Z,1.65
2022-11-14T01:50:18.071Z,1.33
2022-11-14T01:53:06.797Z,1.08
2022-11-14T01:55:55.112Z,2.13
2022-11-14T01:58:43.943Z,1.70
2022-11-14T02:01:35.741Z,0.88
2022-11-14T02:04:27.103Z,1.85
2022-11-14T02:07:14.179Z,1.58
2022-11-14T02:10:03.525Z,2.38
2022-11-14T02:12:51.250Z,1.77
2022-11-14T02:15:38.666Z,4.00
2022-11-14T02:18:26.264Z,3.55
2022-11-14T02:21:15.148Z,2.42
2022-11-14T02:24:02.770Z,0.93
2022-11-14T02:26:51.796Z,5.88
2022-11-14T02:29:39.230Z,2.53
2022-11-14T02:32:26.524Z,2.38
2022-11-14T02:35:13.711Z,4.03
2022-11-14T02:38:01.952Z,3.10
2022-11-14T02:40:49.454Z,1.10
2022-11-14T02:43:36.832Z,3.38
2022-11-14T02:46:24.156Z,2.85
2022-11-14T02:49:11.195Z,1.13
2022-11-14T02:51:58.390Z,1.83
2022-11-14T02:54:50.346Z,1.60
2022-11-14T02:57:41.623Z,1.95
2022-11-14T03:00:28.924Z,2.78
2022-11-14T03:03:15.966Z,1.65
2022-11-14T03:06:03.118Z,3.25
2022-11-14T03:08:50.347Z,3.33
2022-11-14T03:11:39.993Z,2.22
2022-11-14T03:14:27.031Z,2.28
2022-11-14T03:17:14.260Z,1.52
2022-11-14T03:20:01.484Z,2.60
2022-11-14T03:22:48.918Z,2.20
2022-11-14T03:25:35.874Z,2.65
2022-11-14T03:28:24.460Z,2.35
2022-11-14T03:31:12.767Z,2.92
2022-11-14T03:33:59.953Z,1.95
2022-11-14T03:36:47.005Z,1.30
2022-11-14T03:39:33.961Z,1.83
2022-11-14T03:42:21.399Z,3.33
2022-11-14T03:45:11.255Z,1.95
2022-11-14T03:47:58.221Z,2.35
2022-11-14T03:50:45.505Z,2.42
2022-11-14T03:53:32.484Z,3.28
2022-11-14T03:56:19.597Z,1.55
2022-11-14T03:59:07.030Z,2.20
2022-11-14T04:01:55.650Z,2.90
2022-11-14T04:04:42.531Z,2.17
2022-11-14T04:07:31.691Z,3.50
2022-11-14T04:10:19.064Z,3.03
2022-11-14T04:13:06.680Z,3.08
2022-11-14T04:15:57.718Z,1.90
2022-11-14T04:18:46.432Z,2.90
2022-11-14T04:21:33.765Z,1.40
2022-11-14T04:24:20.925Z,2.13
2022-11-14T04:27:08.305Z,4.10
2022-11-14T04:29:55.754Z,1.15
2022-11-14T04:32:43.186Z,1.35
2022-11-14T04:35:31.936Z,1.70
2022-11-14T04:38:19.034Z,4.05
2022-11-14T04:41:06.465Z,2.72
2022-11-14T04:43:53.660Z,1.88
2022-11-14T04:46:40.864Z,2.75
2022-11-14T04:49:27.805Z,1.83
2022-11-14T04:52:16.636Z,2.28
2022-11-14T04:55:03.989Z,1.00
2022-11-14T04:57:55.231Z,0.85
2022-11-14T05:00:42.234Z,2.92
2022-11-14T05:03:29.324Z,3.35
2022-11-14T05:06:16.831Z,0.93
2022-11-14T05:09:05.496Z,3.58
2022-11-14T05:11:52.553Z,2.60
2022-11-14T05:14:39.813Z,2.28
2022-11-14T05:17:26.944Z,2.35
2022-11-14T05:20:14.429Z,2.65
2022-11-14T05:23:01.474Z,4.05
2022-11-14T05:26:00.107Z,1.48
2022-11-14T05:28:47.289Z,2.30
2022-11-14T05:31:34.501Z,1.20
2022-11-14T05:34:21.858Z,2.95
2022-11-14T05:37:09.168Z,2.30
2022-11-14T05:39:56.569Z,2.83
2022-11-14T05:42:45.551Z,3.70
2022-11-14T05:45:32.600Z,4.13
2022-11-14T05:48:23.811Z,3.20
2022-11-14T05:51:14.500Z,2.38
2022-11-14T05:54:01.759Z,2.05
2022-11-14T05:56:48.897Z,1.60
2022-11-14T05:59:37.357Z,3.22
2022-11-14T06:02:24.959Z,4.43
2022-11-14T06:05:12.131Z,3.75
2022-11-14T06:08:00.303Z,2.30
2022-11-14T06:10:47.320Z,3.08
2022-11-14T06:13:34.785Z,3.25
2022-11-14T06:16:23.497Z,3.78
2022-11-14T06:19:11.347Z,1.98
2022-11-14T06:21:58.655Z,1.67
2022-11-14T06:24:45.655Z,3.35
2022-11-14T06:27:33.395Z,3.80
2022-11-14T06:30:20.920Z,3.00
2022-11-14T06:33:09.482Z,2.55
2022-11-14T06:36:00.619Z,3.25
2022-11-14T06:38:47.914Z,2.67
2022-11-14T06:41:35.249Z,2.92
2022-11-14T06:44:30.664Z,2.83
2022-11-14T06:47:18.690Z,1.33
2022-11-14T06:50:08.650Z,2.53
2022-11-14T06:52:55.937Z,3.33
2022-11-14T06:55:43.067Z,2.00
2022-11-14T06:58:31.332Z,2.80
2022-11-14T07:01:19.683Z,2.67
2022-11-14T07:04:07.001Z,3.67
2022-11-14T07:06:55.601Z,3.78
2022-11-14T07:09:42.950Z,3.50
2022-11-14T07:12:30.381Z,3.58
2022-11-14T07:15:17.848Z,1.95
2022-11-14T07:18:05.706Z,2.13
2022-11-14T07:21:05.698Z,0.95
2022-11-14T07:23:54.197Z,2.40
2022-11-14T07:26:41.277Z,1.45
2022-11-14T07:29:28.604Z,2.85
2022-11-14T07:32:15.944Z,2.30
2022-11-14T07:35:03.336Z,1.98
2022-11-14T07:37:51.318Z,2.53
2022-11-14T07:40:40.235Z,2.22
2022-11-14T07:43:28.021Z,1.65
2022-11-14T07:46:16.356Z,1.00
2022-11-14T07:49:03.858Z,1.13
2022-11-14T07:51:51.257Z,3.97
2022-11-14T07:54:38.719Z,49.67
2022-11-14T07:57:28.036Z,9.43
2022-11-14T08:00:16.008Z,3.22
2022-11-14T08:03:03.275Z,3.05
2022-11-14T08:05:50.443Z,2.35
2022-11-14T08:08:38.088Z,1.63
2022-11-14T08:11:39.132Z,1.67
2022-11-14T08:14:27.875Z,5.03
2022-11-14T08:17:14.996Z,3.25
2022-11-14T08:20:02.520Z,3.95
2022-11-14T08:22:49.869Z,1.77
2022-11-14T08:25:36.891Z,2.42
2022-11-14T08:28:24.485Z,2.92
2022-11-14T08:31:14.641Z,4.05
2022-11-14T08:34:01.701Z,3.03
2022-11-14T08:36:48.944Z,2.72
2022-11-14T08:39:36.258Z,3.03
2022-11-14T08:42:23.862Z,2.33
2022-11-14T08:45:11.160Z,1.98
2022-11-14T08:47:59.622Z,3.60
2022-11-14T08:50:46.615Z,2.50
2022-11-14T08:53:34.187Z,2.60
2022-11-14T08:56:21.193Z,2.70
2022-11-14T08:59:08.337Z,2.17
2022-11-14T09:01:55.870Z,3.15
2022-11-14T09:04:44.662Z,2.28
2022-11-14T09:07:32.590Z,2.25
2022-11-14T09:10:19.979Z,4.15
2022-11-14T09:13:07.447Z,2.58
2022-11-14T09:15:54.671Z,5.72
2022-11-14T09:18:42.466Z,3.08
2022-11-14T09:21:30.906Z,4.15
2022-11-14T09:24:18.350Z,3.25
2022-11-14T09:27:05.651Z,3.30
2022-11-14T09:29:52.754Z,2.67
2022-11-14T09:32:40.530Z,2.97
2022-11-14T09:35:28.123Z,5.03
2022-11-14T09:38:16.793Z,3.20
2022-11-14T09:41:08.416Z,3.42
2022-11-14T09:44:14.193Z,3.50
2022-11-14T09:47:07.134Z,3.15
2022-11-14T09:49:57.699Z,4.60
2022-11-14T09:52:47.986Z,3.28
2022-11-14T09:55:37.405Z,4.72
2022-11-14T09:58:25.101Z,2.20
2022-11-14T10:01:17.477Z,7.95
2022-11-14T10:04:09.812Z,5.68
2022-11-14T10:06:58.818Z,3.92
2022-11-14T10:09:52.243Z,5.93
2022-11-14T10:12:46.105Z,4.30
2022-11-14T10:15:38.763Z,3.47
2022-11-14T10:18:46.618Z,2.70
2022-11-14T10:21:40.688Z,3.13
2022-11-14T10:24:34.166Z,4.35
2022-11-14T10:27:24.290Z,5.65
2022-11-14T10:30:14.363Z,3.53
2022-11-14T10:33:19.054Z,2.65
2022-11-14T10:36:09.244Z,3.50
2022-11-14T10:39:02.524Z,5.40
2022-11-14T10:42:03.175Z,2.63
2022-11-14T10:44:58.516Z,2.67
2022-11-14T10:47:50.286Z,4.15
2022-11-14T10:50:42.120Z,4.05
2022-11-14T10:53:35.742Z,2.08
2022-11-14T10:56:23.173Z,3.75
2022-11-14T10:59:10.831Z,3.53
2022-11-14T11:01:59.259Z,4.10
2022-11-14T11:04:48.876Z,1.92
2022-11-14T11:08:15.068Z,4.10
2022-11-14T11:11:31.983Z,4.38
2022-11-14T11:14:24.685Z,3.22
2022-11-14T11:17:20.964Z,4.28
2022-11-14T11:20:31.672Z,5.50
2022-11-14T11:23:22.631Z,3.53
2022-11-14T11:26:17.659Z,4.97
2022-11-14T11:29:07.072Z,5.40
2022-11-14T11:31:55.738Z,6.75
2022-11-14T11:34:43.279Z,2.88
2022-11-14T11:37:34.588Z,4.22
2022-11-14T11:40:25.312Z,3.33
2022-11-14T11:46:27.439Z,3.85
2022-11-14T11:49:16.899Z,4.63
2022-11-14T11:52:06.500Z,5.18
2022-11-14T11:54:57.827Z,4.07
2022-11-14T11:57:48.674Z,4.20
2022-11-14T12:00:36.165Z,5.35
2022-11-14T12:03:24.446Z,5.15
2022-11-14T12:06:15.739Z,3.35
2022-11-14T12:09:16.780Z,4.93
2022-11-14T12:12:07.307Z,5.82
2022-11-14T12:15:02.121Z,4.13
2022-11-14T12:18:04.119Z,6.63
2022-11-14T12:20:59.167Z,4.88
2022-11-14T12:23:56.826Z,5.53
2022-11-14T12:26:49.794Z,4.18
2022-11-14T12:29:51.831Z,4.82
2022-11-14T12:32:42.518Z,3.38
2022-11-14T12:35:32.433Z,5.32
2022-11-14T12:38:21.380Z,4.22
2022-11-14T12:41:20.083Z,5.00
2022-11-14T12:44:20.738Z,3.22
2022-11-14T12:47:15.284Z,2.58
2022-11-14T12:50:06.775Z,6.70
2022-11-14T12:52:55.214Z,7.55
2022-11-14T12:55:56.107Z,3.60
2022-11-14T12:59:01.110Z,3.30
2022-11-14T13:01:51.634Z,4.72
2022-11-14T13:04:43.947Z,5.82
2022-11-14T13:07:41.626Z,5.45
2022-11-14T13:10:31.406Z,6.10
2022-11-14T13:13:36.474Z,4.22
2022-11-14T13:16:42.289Z,7.00
2022-11-14T13:19:47.176Z,5.47
2022-11-14T13:22:46.035Z,6.32
2022-11-14T13:25:33.542Z,4.78
2022-11-14T13:28:39.249Z,6.25
2022-11-14T13:31:43.638Z,3.88
2022-11-14T13:37:30.291Z,2.97
2022-11-14T13:40:22.960Z,5.85
2022-11-14T13:43:16.612Z,6.30
2022-11-14T13:46:10.345Z,5.82
2022-11-14T13:49:03.139Z,5.45
2022-11-14T13:51:53.142Z,6.18
2022-11-14T13:54:46.386Z,7.88
2022-11-14T13:57:44.208Z,6.65
2022-11-14T14:00:32.170Z,5.07
2022-11-14T14:03:30.045Z,6.43
2022-11-14T14:06:28.398Z,7.22
2022-11-14T14:09:21.440Z,8.38
2022-11-14T14:12:22.800Z,7.32
2022-11-14T14:15:15.684Z,6.28
2022-11-14T14:18:07.269Z,5.75
2022-11-14T14:20:58.384Z,6.00
2022-11-14T14:23:49.007Z,6.20
2022-11-14T14:26:40.900Z,6.70
2022-11-14T14:29:32.782Z,7.82
2022-11-14T14:32:21.763Z,5.10
2022-11-14T14:35:38.816Z,4.53
2022-11-14T14:38:29.383Z,7.30
2022-11-14T14:41:18.886Z,5.15
2022-11-14T14:44:07.467Z,5.18
2022-11-14T14:46:55.017Z,7.68
2022-11-14T14:49:43.662Z,7.90
2022-11-14T14:52:33.828Z,7.97
2022-11-14T14:55:24.883Z,12.75
2022-11-14T14:58:21.169Z,18.20
2022-11-14T15:01:12.678Z,16.38
2022-11-14T15:04:02.312Z,15.90
2022-11-14T15:06:51.596Z,13.80
2022-11-14T15:09:39.076Z,13.25
2022-11-14T15:12:27.626Z,23.17
2022-11-14T15:15:15.420Z,15.10
2022-11-14T15:18:06.430Z,10.35
2022-11-14T15:21:10.454Z,12.85
2022-11-14T15:24:02.858Z,10.00
2022-11-14T15:26:51.164Z,7.40
2022-11-14T15:29:46.893Z,7.13
2022-11-14T15:32:34.449Z,7.40
2022-11-14T15:35:29.566Z,9.45
2022-11-14T15:38:43.104Z,16.63
2022-11-14T15:41:30.819Z,13.43
2022-11-14T15:44:31.351Z,9.57
2022-11-14T15:47:22.874Z,10.45
2022-11-14T15:50:25.320Z,13.07
2022-11-14T15:53:19.174Z,7.00
2022-11-14T15:56:06.654Z,9.57
2022-11-14T15:59:12.484Z,9.60
2022-11-14T16:02:01.766Z,8.77
2022-11-14T16:04:49.651Z,8.00
2022-11-14T16:07:36.902Z,6.70
2022-11-14T16:10:24.775Z,5.40
2022-11-14T16:13:12.480Z,6.75
2022-11-14T16:16:01.330Z,12.48
2022-11-14T16:18:48.269Z,11.85
2022-11-14T16:21:35.692Z,11.55
2022-11-14T16:24:24.154Z,13.43
2022-11-14T16:27:11.788Z,11.32
2022-11-14T16:29:58.933Z,8.25
2022-11-14T16:32:48.995Z,9.85
2022-11-14T16:35:37.382Z,7.88
2022-11-14T16:38:25.344Z,9.00
2022-11-14T16:41:15.019Z,9.63
2022-11-14T16:44:02.879Z,8.85
2022-11-14T16:46:50.329Z,7.47
2022-11-14T16:49:39.126Z,8.52
2022-11-14T16:52:26.679Z,7.55
2022-11-14T16:55:14.341Z,7.85
2022-11-14T16:58:07.233Z,9.25
2022-11-14T17:00:54.972Z,9.95
2022-11-14T17:03:42.240Z,8.38
2022-11-14T17:06:31.208Z,9.05
2022-11-14T17:09:18.786Z,10.15
2022-11-14T17:12:07.178Z,11.90
2022-11-14T17:14:54.882Z,7.50
2022-11-14T17:17:46.829Z,8.35
2022-11-14T17:23:25.007Z,8.40
2022-11-14T17:26:13.598Z,9.98
2022-11-14T17:29:00.651Z,13.65
2022-11-14T17:31:48.105Z,8.98
2022-11-14T17:34:35.605Z,8.18
2022-11-14T17:37:22.872Z,9.70
2022-11-14T17:40:15.563Z,9.52
2022-11-14T17:45:55.779Z,12.07
2022-11-14T17:48:42.926Z,13.73
2022-11-14T17:51:30.831Z,8.93
2022-11-14T17:54:19.922Z,4.60
2022-11-14T17:57:08.883Z,4.13
2022-11-14T17:59:57.217Z,6.75
2022-11-14T18:02:44.554Z,13.18
2022-11-14T18:05:42.100Z,10.90
2022-11-14T18:08:30.585Z,9.52
2022-11-14T18:11:19.144Z,6.82
2022-11-14T18:14:08.334Z,7.35
2022-11-14T18:17:12.276Z,10.00
2022-11-14T18:20:01.784Z,10.30
2022-11-14T18:22:49.689Z,12.07
2022-11-14T18:25:37.155Z,11.90
2022-11-14T18:28:24.359Z,12.52
2022-11-14T18:31:13.811Z,8.38
2022-11-14T18:34:03.078Z,10.05
2022-11-14T18:36:50.700Z,10.00
2022-11-14T18:39:37.938Z,9.20
2022-11-14T18:42:25.640Z,9.30
2022-11-14T18:45:15.193Z,8.50
2022-11-14T18:48:04.666Z,9.68
2022-11-14T18:50:51.757Z,5.47
2022-11-14T18:53:41.264Z,5.95
2022-11-14T18:56:50.959Z,7.65
2022-11-14T18:59:38.239Z,16.98
2022-11-14T19:02:25.822Z,9.50
2022-11-14T19:05:20.185Z,5.35
2022-11-14T19:08:09.758Z,7.55
2022-11-14T19:11:02.642Z,5.15
2022-11-14T19:13:50.926Z,3.58
2022-11-14T19:16:39.166Z,6.50
2022-11-14T19:19:26.615Z,6.15
2022-11-14T19:22:15.375Z,4.68
2022-11-14T19:25:05.061Z,4.25
2022-11-14T19:27:53.501Z,5.63
2022-11-14T19:30:41.571Z,5.47
2022-11-14T19:33:43.533Z,8.27
2022-11-14T19:36:58.300Z,4.65
2022-11-14T19:39:39.931Z,3.80
2022-11-14T19:42:28.179Z,4.53
2022-11-14T19:45:15.715Z,2.80
2022-11-14T19:48:02.673Z,1.92
2022-11-14T19:50:50.036Z,3.33
2022-11-14T19:53:38.468Z,2.58
2022-11-14T19:56:28.005Z,3.00
2022-11-14T19:59:18.009Z,3.72
2022-11-14T20:02:10.076Z,2.53
2022-11-14T20:04:57.228Z,6.00
2022-11-14T20:07:45.240Z,6.22
2022-11-14T20:10:48.001Z,5.40
2022-11-14T20:13:38.107Z,6.20
2022-11-14T20:16:26.489Z,5.57
2022-11-14T20:19:14.536Z,5.63
2022-11-14T20:22:01.816Z,3.00
2022-11-14T20:24:49.397Z,3.65
2022-11-14T20:27:36.899Z,2.55
2022-11-14T20:30:29.009Z,3.53
2022-11-14T20:33:16.485Z,4.30
2022-11-14T20:36:04.410Z,2.85
2022-11-14T20:38:51.661Z,5.70
2022-11-14T20:41:39.127Z,3.88
2022-11-14T20:44:26.266Z,3.20
2022-11-14T20:47:14.866Z,1.63
2022-11-14T20:50:03.476Z,3.53
2022-11-14T20:52:52.773Z,2.70
2022-11-14T20:55:40.112Z,3.33
2022-11-14T20:58:27.717Z,2.60
2022-11-14T21:01:16.376Z,2.47
2022-11-14T21:04:05.426Z,2.42
2022-11-14T21:06:53.099Z,1.50
2022-11-14T21:09:40.356Z,3.75
2022-11-14T21:12:27.580Z,2.50
2022-11-14T21:15:15.078Z,2.50
2022-11-14T21:18:02.842Z,2.72
2022-11-14T21:20:51.281Z,3.88
2022-11-14T21:23:39.003Z,3.83
2022-11-14T21:26:26.750Z,3.55
2022-11-14T21:29:15.456Z,3.45
2022-11-14T21:32:02.937Z,3.83
2022-11-14T21:34:50.458Z,3.70
2022-11-14T21:37:42.836Z,2.75
2022-11-14T21:40:29.962Z,2.20
2022-11-14T21:43:17.072Z,3.83
2022-11-14T21:46:05.548Z,3.40
2022-11-14T21:48:52.845Z,2.58
2022-11-14T21:51:39.988Z,2.78
2022-11-14T21:54:28.848Z,2.20
2022-11-14T21:57:16.186Z,1.83
2022-11-14T22:00:03.340Z,2.80
2022-11-14T22:03:07.752Z,1.50
2022-11-14T22:05:59.084Z,4.90
2022-11-14T22:08:46.060Z,5.53
2022-11-14T22:11:34.672Z,8.00
2022-11-14T22:14:22.065Z,2.80
2022-11-14T22:17:09.325Z,5.05
2022-11-14T22:19:56.442Z,4.82
2022-11-14T22:22:43.856Z,2.78
2022-11-14T22:25:31.593Z,5.18
2022-11-14T22:28:32.923Z,4.82
2022-11-14T22:31:20.603Z,6.40
2022-11-14T22:34:08.231Z,3.33
2022-11-14T22:36:55.533Z,3.53
2022-11-14T22:39:42.512Z,4.03
2022-11-14T22:42:29.848Z,3.55
2022-11-14T22:45:18.972Z,2.78
2022-11-14T22:48:06.143Z,3.83
2022-11-14T22:51:13.650Z,3.60
2022-11-14T22:54:00.909Z,2.53
2022-11-14T22:56:47.899Z,4.93
2022-11-14T22:59:34.984Z,4.13
2022-11-14T23:02:23.674Z,4.60
2022-11-14T23:05:11.206Z,1.88
2022-11-14T23:07:58.253Z,2.97
2022-11-14T23:10:46.276Z,1.63
2022-11-14T23:13:37.864Z,4.50
2022-11-14T23:16:25.921Z,2.47
2022-11-14T23:19:14.793Z,2.85
2022-11-14T23:22:01.905Z,3.00
2022-11-14T23:24:48.848Z,3.17
2022-11-14T23:27:35.910Z,3.35
2022-11-14T23:30:23.208Z,3.20
2022-11-14T23:33:10.389Z,5.88
2022-11-14T23:35:59.021Z,5.40
2022-11-14T23:38:46.637Z,2.35
2022-11-14T23:41:33.940Z,2.58
2022-11-14T23:44:20.969Z,1.67
2022-11-14T23:47:08.060Z,1.85
2022-11-14T23:49:55.040Z,2.03
2022-11-14T23:52:43.587Z,2.88
2022-11-14T23:55:31.009Z,4.38
2022-11-14T23:58:18.207Z,4.72
